Time;durP1;ratioP1;P1;durP2;ratioP2;P2;SDS_P1;SDS_P2;PMS_P1;PMS_P2;Temp;Humidity;BMP_temperature;BMP_pressure;BME280_temperature;BME280_humidity;BME280_pressure;Samples;Min_cycle;Max_cycle;Signal;HPM_P1;HPM_P2
2023/10/27 00:00:43;;;;;;;94.22;19.90;;;8.60;99.90;;;;;;5096298;28;20575;-66
2023/10/27 00:03:09;;;;;;;86.45;20.17;;;8.60;99.90;;;;;;5099283;28;20206;-65
2023/10/27 00:05:37;;;;;;;83.38;18.98;;;8.60;99.90;;;;;;5097939;28;20226;-64
2023/10/27 00:08:04;;;;;;;269.42;27.85;;;8.60;99.90;;;;;;5095927;28;20197;-66
2023/10/27 00:10:31;;;;;;;239.52;24.27;;;8.70;99.90;;;;;;5095474;28;20207;-66
2023/10/27 00:12:58;;;;;;;143.23;20.40;;;8.70;99.90;;;;;;5095540;28;20188;-66
2023/10/27 00:15:24;;;;;;;188.10;22.30;;;8.60;99.90;;;;;;5094769;28;20573;-65
2023/10/27 00:17:51;;;;;;;179.75;21.55;;;8.60;99.90;;;;;;5095054;28;20242;-67
2023/10/27 00:20:18;;;;;;;141.18;19.88;;;8.50;99.90;;;;;;5095078;28;20208;-66
2023/10/27 00:22:46;;;;;;;81.50;17.65;;;8.50;99.90;;;;;;5095369;28;20208;-65
2023/10/27 00:25:12;;;;;;;155.85;20.02;;;8.50;99.90;;;;;;5095484;28;20239;-65
2023/10/27 00:27:39;;;;;;;58.22;14.88;;;8.50;99.90;;;;;;5097370;28;20196;-66
2023/10/27 00:30:08;;;;;;;134.02;19.38;;;8.50;99.90;;;;;;5099412;28;20208;-66
2023/10/27 00:32:36;;;;;;;130.48;18.15;;;8.40;99.90;;;;;;5098755;28;20579;-65
2023/10/27 00:35:04;;;;;;;125.50;17.63;;;8.30;99.90;;;;;;5099248;28;20247;-67
2023/10/27 00:37:33;;;;;;;56.00;15.35;;;8.30;99.90;;;;;;5098639;28;20220;-65
2023/10/27 00:40:01;;;;;;;60.40;15.40;;;8.30;99.90;;;;;;5098447;28;20670;-64
2023/10/27 00:42:28;;;;;;;41.67;13.90;;;8.30;99.90;;;;;;5100419;28;20554;-66
2023/10/27 00:44:55;;;;;;;93.32;16.05;;;8.30;99.90;;;;;;5098362;28;20220;-66
2023/10/27 00:47:24;;;;;;;128.50;18.35;;;8.20;99.90;;;;;;5098748;28;20204;-65
2023/10/27 00:49:51;;;;;;;207.27;21.25;;;8.20;99.90;;;;;;5097985;28;20216;-66
2023/10/27 00:52:19;;;;;;;89.35;16.02;;;8.20;99.90;;;;;;5098761;28;20208;-65
2023/10/27 00:54:48;;;;;;;48.42;13.43;;;8.10;99.90;;;;;;5098262;28;20224;-65
2023/10/27 00:57:17;;;;;;;203.40;23.00;;;8.10;99.90;;;;;;5099004;28;20217;-66
2023/10/27 00:59:44;;;;;;;31.92;12.65;;;8.10;99.90;;;;;;5098571;28;20211;-64
2023/10/27 01:02:11;;;;;;;47.13;13.48;;;8.10;99.90;;;;;;5098673;28;20197;-66
2023/10/27 01:04:40;;;;;;;35.10;11.93;;;8.10;99.90;;;;;;5098372;28;20327;-65
2023/10/27 01:07:07;;;;;;;36.42;13.23;;;8.10;99.90;;;;;;5108756;28;20197;-65
2023/10/27 01:09:33;;;;;;;65.65;16.30;;;8.10;99.90;;;;;;5114582;28;20204;-64
2023/10/27 01:12:00;;;;;;;134.52;16.58;;;8.10;99.90;;;;;;5105534;28;20208;-65
2023/10/27 01:14:28;;;;;;;106.55;15.18;;;8.00;99.90;;;;;;5101616;28;20238;-65
2023/10/27 01:16:56;;;;;;;82.78;14.65;;;8.00;99.90;;;;;;5099113;28;20228;-66
2023/10/27 01:19:23;;;;;;;77.47;13.70;;;7.90;99.90;;;;;;5098209;28;20203;-65
2023/10/27 01:21:50;;;;;;;56.70;11.80;;;7.90;99.90;;;;;;5098979;28;20545;-65
2023/10/27 01:24:18;;;;;;;62.40;11.50;;;7.80;99.90;;;;;;5097919;28;20201;-65
2023/10/27 01:26:45;;;;;;;23.73;10.98;;;7.80;99.90;;;;;;5098887;28;20200;-64
2023/10/27 01:29:11;;;;;;;44.90;11.55;;;7.80;99.90;;;;;;5105938;28;20670;-65
2023/10/27 01:31:38;;;;;;;54.58;12.10;;;7.80;99.90;;;;;;5112835;28;20208;-65
2023/10/27 01:34:05;;;;;;;64.85;11.98;;;7.80;99.90;;;;;;5111815;28;20218;-66
2023/10/27 01:36:32;;;;;;;31.48;10.40;;;7.80;99.90;;;;;;5105724;28;20200;-65
2023/10/27 01:38:59;;;;;;;35.50;11.23;;;7.80;99.90;;;;;;5100272;28;20224;-65
2023/10/27 01:41:27;;;;;;;57.05;13.35;;;7.90;99.90;;;;;;5102049;28;20211;-66
2023/10/27 01:43:53;;;;;;;144.52;16.10;;;7.90;99.90;;;;;;5099635;28;20207;-64
2023/10/27 01:46:20;;;;;;;50.88;12.30;;;7.90;99.90;;;;;;5098752;28;20227;-65
2023/10/27 01:48:47;;;;;;;101.53;12.90;;;8.00;99.90;;;;;;5098944;28;20212;-65
2023/10/27 01:51:14;;;;;;;107.60;13.43;;;7.90;99.90;;;;;;5098510;28;20200;-65
2023/10/27 01:53:41;;;;;;;61.38;11.40;;;7.90;99.90;;;;;;5097981;28;20207;-65
2023/10/27 01:56:08;;;;;;;105.38;13.15;;;7.90;99.90;;;;;;5097546;28;20246;-65
2023/10/27 01:58:40;;;;;;;31.45;9.90;;;7.90;99.90;;;;;;5101946;28;20631;-64
2023/10/27 02:01:07;;;;;;;19.50;9.50;;;7.90;99.90;;;;;;5102588;28;20184;-63
2023/10/27 02:03:33;;;;;;;59.50;11.95;;;7.90;99.90;;;;;;5100118;28;20227;-65
2023/10/27 02:06:00;;;;;;;23.95;8.57;;;8.00;99.90;;;;;;5100065;28;20224;-64
2023/10/27 02:08:27;;;;;;;32.03;9.73;;;8.00;99.90;;;;;;5100265;28;20203;-65
2023/10/27 02:10:54;;;;;;;44.20;10.15;;;8.00;99.90;;;;;;5100474;28;20212;-64
2023/10/27 02:13:20;;;;;;;47.30;11.10;;;8.00;99.90;;;;;;5101203;28;20279;-64
2023/10/27 02:15:48;;;;;;;52.72;10.40;;;8.00;99.90;;;;;;5098662;28;20228;-65
2023/10/27 02:18:15;;;;;;;17.05;8.60;;;8.00;99.90;;;;;;5098007;28;20741;-65
2023/10/27 02:20:42;;;;;;;17.10;8.32;;;8.00;99.90;;;;;;5097763;28;20211;-65
2023/10/27 02:23:09;;;;;;;19.10;9.23;;;8.00;99.90;;;;;;5097319;28;20697;-63
2023/10/27 02:25:36;;;;;;;20.75;8.85;;;8.00;99.90;;;;;;5099417;28;20235;-64
2023/10/27 02:28:02;;;;;;;29.25;9.10;;;8.00;99.90;;;;;;5098668;28;20223;-65
2023/10/27 02:30:29;;;;;;;55.70;11.45;;;8.00;99.90;;;;;;5098350;28;20226;-64
2023/10/27 02:32:57;;;;;;;24.08;9.85;;;8.00;99.90;;;;;;5098154;28;20204;-64
2023/10/27 02:35:25;;;;;;;32.50;9.88;;;7.90;99.90;;;;;;5098784;28;20231;-64
2023/10/27 02:37:52;;;;;;;21.80;8.40;;;7.90;99.90;;;;;;5099111;28;20223;-64
2023/10/27 02:40:19;;;;;;;48.20;11.75;;;7.90;99.90;;;;;;5099554;28;20201;-64
2023/10/27 02:42:46;;;;;;;65.82;12.60;;;7.90;99.90;;;;;;5099636;28;20200;-65
2023/10/27 02:45:12;;;;;;;61.63;12.20;;;7.80;99.90;;;;;;5099167;28;20609;-64
2023/10/27 02:47:40;;;;;;;38.17;10.60;;;7.80;99.90;;;;;;5102081;28;20208;-64
2023/10/27 02:50:08;;;;;;;61.72;13.02;;;7.80;99.90;;;;;;5100112;28;20558;-64
2023/10/27 02:52:35;;;;;;;48.80;12.23;;;7.80;99.90;;;;;;5098933;28;20217;-64
2023/10/27 02:55:02;;;;;;;68.32;12.00;;;7.80;99.90;;;;;;5098863;28;20220;-64
2023/10/27 02:57:29;;;;;;;112.95;14.73;;;7.80;99.90;;;;;;5098945;28;20303;-64
2023/10/27 02:59:57;;;;;;;92.13;13.73;;;7.90;99.90;;;;;;5098951;28;20608;-64
2023/10/27 03:02:23;;;;;;;98.45;15.40;;;7.80;99.90;;;;;;5097687;28;20642;-65
2023/10/27 03:04:51;;;;;;;97.40;14.45;;;7.80;99.90;;;;;;5096186;28;20227;-66
2023/10/27 03:07:19;;;;;;;89.25;15.90;;;7.80;99.90;;;;;;5095973;28;20200;-65
2023/10/27 03:09:46;;;;;;;63.20;12.27;;;7.80;99.90;;;;;;5096755;28;20212;-64
2023/10/27 03:12:14;;;;;;;76.45;14.40;;;7.80;99.90;;;;;;5096157;28;20215;-64
2023/10/27 03:14:41;;;;;;;75.80;14.35;;;7.80;99.90;;;;;;5097037;28;20287;-63
2023/10/27 03:17:08;;;;;;;46.92;12.18;;;7.80;99.90;;;;;;5098462;28;20204;-64
2023/10/27 03:19:34;;;;;;;39.40;12.68;;;7.80;99.90;;;;;;5098086;28;20224;-64
2023/10/27 03:22:02;;;;;;;48.13;12.65;;;7.80;99.90;;;;;;5098051;28;20204;-64
2023/10/27 03:24:30;;;;;;;60.72;13.90;;;7.80;99.90;;;;;;5097997;28;20224;-64
2023/10/27 03:26:57;;;;;;;31.23;11.73;;;7.80;99.90;;;;;;5098729;28;20200;-64
2023/10/27 03:29:24;;;;;;;36.38;12.63;;;7.80;99.90;;;;;;5104244;28;20556;-64
2023/10/27 03:31:50;;;;;;;43.10;12.57;;;7.80;99.90;;;;;;5108548;28;20228;-65
2023/10/27 03:34:17;;;;;;;52.92;12.98;;;7.80;99.90;;;;;;5103597;28;20200;-64
2023/10/27 03:36:44;;;;;;;40.55;11.88;;;7.80;99.90;;;;;;5096848;28;20226;-63
2023/10/27 03:39:12;;;;;;;39.97;11.07;;;7.80;99.90;;;;;;5096953;28;20220;-64
2023/10/27 03:41:40;;;;;;;57.67;11.68;;;7.80;99.90;;;;;;5095726;28;20204;-65
2023/10/27 03:44:07;;;;;;;37.13;10.57;;;7.80;99.90;;;;;;5095633;28;20585;-65
2023/10/27 03:46:34;;;;;;;47.17;11.95;;;7.70;99.90;;;;;;5095938;28;20197;-65
2023/10/27 03:49:01;;;;;;;46.30;11.52;;;7.70;99.90;;;;;;5095841;28;20662;-64
2023/10/27 03:51:28;;;;;;;34.40;10.60;;;7.70;99.90;;;;;;5095350;28;20204;-64
2023/10/27 03:53:55;;;;;;;37.78;11.38;;;7.70;99.90;;;;;;5095028;28;20211;-64
2023/10/27 03:56:21;;;;;;;29.25;10.13;;;7.70;99.90;;;;;;5095146;28;20278;-64
2023/10/27 03:58:50;;;;;;;38.75;12.25;;;7.70;99.90;;;;;;5094952;28;20220;-65
2023/10/27 04:01:17;;;;;;;37.95;11.30;;;7.70;99.90;;;;;;5102633;22;20279;-63
2023/10/27 04:03:44;;;;;;;36.13;10.82;;;7.70;99.90;;;;;;5053038;28;20186;-63
2023/10/27 04:06:11;;;;;;;28.40;12.00;;;7.70;99.90;;;;;;5052891;28;20202;-63
2023/10/27 04:08:38;;;;;;;23.85;10.98;;;7.70;99.90;;;;;;5052529;28;20679;-63
2023/10/27 04:12:24;;;;;;;21.20;10.48;;;7.70;99.90;;;;;;5097269;27;1243374;-65
2023/10/27 04:14:51;;;;;;;35.83;11.93;;;7.70;99.90;;;;;;5130946;28;20195;-64
2023/10/27 04:17:18;;;;;;;24.27;11.00;;;7.80;99.90;;;;;;5131717;28;20206;-64
2023/10/27 04:19:44;;;;;;;21.52;12.18;;;7.80;99.90;;;;;;5131609;28;20576;-64
2023/10/27 04:22:11;;;;;;;20.73;10.88;;;7.80;99.90;;;;;;5131148;27;20709;-64
2023/10/27 04:24:38;;;;;;;21.50;10.00;;;7.80;99.90;;;;;;5130880;28;20549;-63
2023/10/27 04:27:05;;;;;;;22.25;8.73;;;7.80;99.90;;;;;;5131093;28;20202;-63
2023/10/27 04:29:33;;;;;;;19.00;9.10;;;7.80;99.90;;;;;;5131243;28;20206;-65
2023/10/27 04:32:02;;;;;;;23.33;9.63;;;7.80;99.90;;;;;;5130544;27;20715;-64
2023/10/27 04:34:29;;;;;;;16.02;8.65;;;7.80;99.90;;;;;;5130558;28;20248;-65
2023/10/27 04:36:56;;;;;;;26.88;10.38;;;7.80;99.90;;;;;;5130961;28;20214;-65
2023/10/27 04:39:23;;;;;;;25.17;9.70;;;7.80;99.90;;;;;;5130942;28;20608;-65
2023/10/27 04:41:49;;;;;;;18.20;8.88;;;7.70;99.90;;;;;;5130401;27;20310;-64
2023/10/27 04:44:22;;;;;;;32.35;8.60;;;7.70;99.90;;;;;;5130848;28;20210;-64
2023/10/27 04:46:51;;;;;;;13.77;8.10;;;7.60;99.90;;;;;;5131693;28;20219;-64
2023/10/27 04:49:18;;;;;;;18.98;9.88;;;7.60;99.90;;;;;;5130456;28;20575;-64
2023/10/27 04:51:45;;;;;;;15.10;10.82;;;7.60;99.90;;;;;;5130350;27;20234;-63
2023/10/27 04:54:12;;;;;;;20.75;11.13;;;7.60;99.90;;;;;;5130937;28;20342;-63
2023/10/27 04:56:39;;;;;;;40.45;10.10;;;7.60;99.90;;;;;;5132839;28;20195;-64
2023/10/27 04:59:05;;;;;;;24.08;10.95;;;7.60;99.90;;;;;;5131464;28;20294;-64
2023/10/27 05:01:32;;;;;;;34.55;10.93;;;7.60;99.90;;;;;;5133362;27;20238;-65
2023/10/27 05:04:01;;;;;;;17.30;9.27;;;7.60;99.90;;;;;;5134841;28;20214;-64
2023/10/27 05:06:29;;;;;;;36.75;9.73;;;7.60;99.90;;;;;;5134192;28;20231;-65
2023/10/27 05:08:56;;;;;;;17.63;9.82;;;7.60;99.90;;;;;;5138347;28;20203;-65
2023/10/27 05:11:23;;;;;;;20.63;9.07;;;7.50;99.90;;;;;;5139676;27;20227;-64
2023/10/27 05:13:50;;;;;;;21.58;9.82;;;7.50;99.90;;;;;;5140921;28;20203;-64
2023/10/27 05:16:16;;;;;;;13.63;8.02;;;7.50;99.90;;;;;;5143981;28;20680;-65
2023/10/27 05:18:43;;;;;;;23.23;9.55;;;7.50;99.90;;;;;;5141756;28;20205;-64
2023/10/27 05:21:16;;;;;;;16.90;9.50;;;7.60;99.90;;;;;;5130016;27;20238;-63
2023/10/27 05:23:43;;;;;;;16.85;8.82;;;7.60;99.90;;;;;;5117868;28;20205;-63
2023/10/27 05:26:09;;;;;;;19.13;9.32;;;7.60;99.90;;;;;;5116456;28;20204;-63
2023/10/27 05:28:36;;;;;;;51.75;11.45;;;7.60;99.90;;;;;;5116473;28;20230;-63
2023/10/27 05:31:03;;;;;;;65.60;12.30;;;7.60;99.90;;;;;;5116291;28;20615;-64
2023/10/27 05:33:30;;;;;;;19.45;9.98;;;7.50;99.90;;;;;;5116665;28;20200;-63
2023/10/27 05:35:56;;;;;;;24.38;11.02;;;7.50;99.90;;;;;;5116212;28;20207;-64
2023/10/27 05:38:25;;;;;;;17.10;9.88;;;7.50;99.90;;;;;;5116363;28;20290;-63
2023/10/27 05:40:51;;;;;;;23.00;10.88;;;7.50;99.90;;;;;;5116320;28;20204;-64
2023/10/27 05:43:20;;;;;;;20.90;9.75;;;7.50;99.90;;;;;;5116198;28;20253;-66
2023/10/27 05:45:46;;;;;;;15.52;9.40;;;7.50;99.90;;;;;;5115854;28;20235;-66
2023/10/27 05:48:13;;;;;;;20.40;10.80;;;7.50;99.90;;;;;;5116037;28;20257;-64
2023/10/27 05:50:40;;;;;;;26.92;10.98;;;7.50;99.90;;;;;;5115628;28;20195;-64
2023/10/27 05:53:07;;;;;;;19.52;11.10;;;7.50;99.90;;;;;;5116374;28;20224;-65
2023/10/27 05:55:35;;;;;;;21.55;10.60;;;7.60;99.90;;;;;;5116288;28;20552;-65
2023/10/27 05:58:02;;;;;;;17.33;10.00;;;7.60;99.90;;;;;;5115929;28;20195;-64
2023/10/27 06:00:29;;;;;;;34.50;9.63;;;7.60;99.90;;;;;;5115843;28;20207;-64
2023/10/27 06:02:56;;;;;;;19.35;9.98;;;7.60;99.90;;;;;;5115759;28;20223;-65
2023/10/27 06:05:23;;;;;;;14.25;9.05;;;7.50;99.90;;;;;;5116083;28;20222;-65
2023/10/27 06:07:50;;;;;;;18.75;9.90;;;7.50;99.90;;;;;;5115731;28;20252;-64
2023/10/27 06:10:18;;;;;;;20.50;10.15;;;7.50;99.90;;;;;;5115708;28;20199;-64
2023/10/27 06:12:46;;;;;;;12.70;8.32;;;7.40;99.90;;;;;;5116262;28;20318;-66
2023/10/27 06:15:13;;;;;;;11.57;7.82;;;7.40;99.90;;;;;;5116277;28;20662;-65
2023/10/27 06:17:40;;;;;;;21.92;8.63;;;7.40;99.90;;;;;;5115231;28;20206;-65
2023/10/27 06:20:08;;;;;;;13.18;7.80;;;7.40;99.90;;;;;;5114937;28;20681;-65
2023/10/27 06:22:35;;;;;;;12.48;7.88;;;7.40;99.90;;;;;;5115223;28;20215;-65
2023/10/27 06:25:02;;;;;;;16.67;8.18;;;7.40;99.90;;;;;;5115406;28;20621;-64
2023/10/27 06:27:29;;;;;;;13.63;8.25;;;7.40;99.90;;;;;;5115973;28;20245;-66
2023/10/27 06:29:57;;;;;;;9.77;6.10;;;7.40;99.90;;;;;;5115939;28;20672;-65
2023/10/27 06:32:24;;;;;;;14.13;7.30;;;7.40;99.90;;;;;;5115271;28;20220;-66
2023/10/27 06:34:50;;;;;;;13.50;7.90;;;7.40;99.90;;;;;;5114217;28;20211;-65
2023/10/27 06:37:17;;;;;;;10.18;6.90;;;7.40;99.90;;;;;;5117237;28;20680;-65
2023/10/27 06:39:44;;;;;;;13.48;7.38;;;7.40;99.90;;;;;;5121306;28;20673;-64
2023/10/27 06:42:11;;;;;;;11.07;7.93;;;7.40;99.90;;;;;;5116697;28;20216;-64
2023/10/27 06:44:37;;;;;;;11.50;8.63;;;7.50;99.90;;;;;;5117395;28;20216;-65
2023/10/27 06:47:06;;;;;;;19.77;7.20;;;7.50;99.90;;;;;;5117559;28;20203;-64
2023/10/27 06:49:32;;;;;;;16.25;8.45;;;7.50;99.90;;;;;;5117430;28;20227;-64
2023/10/27 06:51:59;;;;;;;13.13;7.93;;;7.60;99.90;;;;;;5117046;28;20223;-64
2023/10/27 06:54:26;;;;;;;13.43;8.20;;;7.60;99.90;;;;;;5116882;28;20226;-64
2023/10/27 06:56:54;;;;;;;22.98;9.65;;;7.60;99.90;;;;;;5115946;28;20565;-65
2023/10/27 06:59:21;;;;;;;13.10;9.55;;;7.60;99.90;;;;;;5115566;28;20203;-64
2023/10/27 07:01:48;;;;;;;14.40;9.48;;;7.70;99.90;;;;;;5115884;28;20227;-64
2023/10/27 07:04:17;;;;;;;13.55;9.30;;;7.70;99.90;;;;;;5115489;28;20276;-65
2023/10/27 07:06:44;;;;;;;15.10;8.80;;;7.70;99.90;;;;;;5115227;28;20205;-63
2023/10/27 07:09:10;;;;;;;19.98;9.77;;;7.80;99.90;;;;;;5115218;28;20208;-65
2023/10/27 07:11:38;;;;;;;21.40;10.35;;;7.70;99.90;;;;;;5113925;28;20223;-64
2023/10/27 07:14:05;;;;;;;26.45;11.35;;;7.80;99.90;;;;;;5114596;28;20199;-64
2023/10/27 07:16:32;;;;;;;14.05;8.93;;;7.80;99.90;;;;;;5116260;28;20203;-64
2023/10/27 07:18:58;;;;;;;16.20;9.90;;;7.80;99.90;;;;;;5114846;28;20203;-64
2023/10/27 07:21:26;;;;;;;21.52;9.60;;;7.90;99.90;;;;;;5114102;28;20222;-65
2023/10/27 07:23:53;;;;;;;17.40;9.57;;;7.90;99.90;;;;;;5114343;28;20248;-64
2023/10/27 07:26:20;;;;;;;21.35;10.43;;;8.00;99.90;;;;;;5114259;28;20207;-62
2023/10/27 07:28:47;;;;;;;24.65;8.93;;;8.00;99.90;;;;;;5114039;28;20199;-62
2023/10/27 07:31:14;;;;;;;33.72;12.15;;;8.00;99.90;;;;;;5114371;28;20234;-62
2023/10/27 07:33:40;;;;;;;27.25;10.70;;;8.00;99.90;;;;;;5114763;28;20204;-62
2023/10/27 07:36:07;;;;;;;24.52;11.07;;;8.00;99.90;;;;;;5114943;28;20639;-63
2023/10/27 07:38:35;;;;;;;23.25;10.90;;;8.00;99.90;;;;;;5114027;28;20201;-63
2023/10/27 07:41:03;;;;;;;33.72;11.18;;;8.00;99.90;;;;;;5115007;28;20695;-63
2023/10/27 07:43:30;;;;;;;31.00;12.55;;;8.00;99.90;;;;;;5116369;28;20771;-63
2023/10/27 07:45:57;;;;;;;31.50;11.57;;;8.10;99.90;;;;;;5117127;28;20206;-64
2023/10/27 07:48:24;;;;;;;39.50;11.98;;;8.10;99.90;;;;;;5117604;28;20231;-63
2023/10/27 07:50:51;;;;;;;49.60;11.98;;;8.20;99.90;;;;;;5117794;28;20199;-64
2023/10/27 07:53:18;;;;;;;57.72;11.73;;;8.20;99.90;;;;;;5117194;28;20318;-64
2023/10/27 07:55:46;;;;;;;30.52;12.25;;;8.30;99.90;;;;;;5119641;28;20203;-63
2023/10/27 07:58:12;;;;;;;38.35;12.20;;;8.30;99.90;;;;;;5116495;28;20207;-63
2023/10/27 08:00:39;;;;;;;23.50;12.32;;;8.40;99.90;;;;;;5114189;28;20581;-63
2023/10/27 08:03:06;;;;;;;48.40;11.45;;;8.40;99.90;;;;;;5113610;28;20211;-63
2023/10/27 08:05:33;;;;;;;71.25;12.70;;;8.50;99.90;;;;;;5113692;28;20665;-64
2023/10/27 08:07:59;;;;;;;43.60;11.95;;;8.60;99.90;;;;;;5113473;28;20211;-62
2023/10/27 08:10:26;;;;;;;23.38;11.25;;;8.60;99.90;;;;;;5113946;28;20200;-61
2023/10/27 08:12:55;;;;;;;34.75;13.63;;;8.70;99.90;;;;;;5113745;28;20231;-64
2023/10/27 08:15:23;;;;;;;36.55;13.90;;;8.70;99.90;;;;;;5113652;28;20196;-62
2023/10/27 08:17:50;;;;;;;37.25;12.98;;;8.80;99.90;;;;;;5113798;28;20203;-62
2023/10/27 08:20:17;;;;;;;43.33;12.52;;;8.80;99.90;;;;;;5113623;28;20203;-63
2023/10/27 08:22:45;;;;;;;57.15;12.85;;;8.90;99.90;;;;;;5113388;28;20718;-62
2023/10/27 08:25:11;;;;;;;57.45;13.15;;;8.90;99.90;;;;;;5114177;28;20200;-63
2023/10/27 08:27:38;;;;;;;35.40;13.82;;;9.00;99.90;;;;;;5113245;28;20700;-62
2023/10/27 08:30:08;;;;;;;31.95;12.93;;;9.00;99.90;;;;;;5113421;28;20558;-62
2023/10/27 08:32:34;;;;;;;42.13;13.50;;;9.10;99.90;;;;;;5113953;28;20603;-63
2023/10/27 08:35:01;;;;;;;38.15;14.50;;;9.10;99.90;;;;;;5113162;28;20680;-65
2023/10/27 08:37:28;;;;;;;34.28;14.05;;;9.10;99.90;;;;;;5114849;28;20279;-62
2023/10/27 08:39:55;;;;;;;43.00;13.35;;;9.20;99.90;;;;;;5113327;28;20200;-64
2023/10/27 08:42:22;;;;;;;38.80;13.20;;;9.20;99.90;;;;;;5113736;28;20231;-64
2023/10/27 08:44:49;;;;;;;33.90;13.10;;;9.30;99.90;;;;;;5113768;28;20212;-63
2023/10/27 08:47:17;;;;;;;36.13;12.65;;;9.40;99.90;;;;;;5113058;28;21053;-64
2023/10/27 08:49:43;;;;;;;29.17;12.95;;;9.40;99.90;;;;;;5113527;28;20200;-62
2023/10/27 08:52:11;;;;;;;30.47;13.30;;;9.50;99.90;;;;;;5113221;28;20590;-63
2023/10/27 08:54:41;;;;;;;24.87;12.37;;;9.60;99.90;;;;;;5113287;28;20957;-63
2023/10/27 08:57:08;;;;;;;26.80;13.97;;;9.60;99.90;;;;;;5114130;28;20434;-63
2023/10/27 08:59:36;;;;;;;20.67;12.70;;;9.70;99.90;;;;;;5116880;28;20961;-63
2023/10/27 09:02:03;;;;;;;24.67;13.40;;;9.80;99.90;;;;;;5117081;28;20457;-64
2023/10/27 09:04:33;;;;;;;22.23;12.35;;;9.90;99.90;;;;;;5116986;28;20439;-63
2023/10/27 09:07:00;;;;;;;25.17;13.60;;;9.90;99.90;;;;;;5116726;28;20590;-64
2023/10/27 09:09:27;;;;;;;19.23;13.33;;;10.00;99.90;;;;;;5116794;28;20441;-63
2023/10/27 09:11:54;;;;;;;21.63;13.50;;;10.00;99.90;;;;;;5118718;28;20487;-63
2023/10/27 09:14:23;;;;;;;17.60;11.17;;;10.10;99.90;;;;;;5117194;28;20437;-64
2023/10/27 09:16:50;;;;;;;21.10;12.10;;;10.20;99.90;;;;;;5117854;28;20455;-64
2023/10/27 09:19:21;;;;;;;19.13;12.40;;;10.20;99.90;;;;;;5117463;28;20447;-63
2023/10/27 09:21:50;;;;;;;15.97;11.80;;;10.30;99.90;;;;;;5116779;28;20457;-62
2023/10/27 09:24:26;;;;;;;17.07;11.20;;;10.30;99.90;;;;;;5116970;28;20450;-64
2023/10/27 09:26:54;;;;;;;16.90;10.90;;;10.40;99.90;;;;;;5116414;28;20926;-63
2023/10/27 09:29:21;;;;;;;16.53;11.70;;;10.40;99.90;;;;;;5116905;28;20860;-64
2023/10/27 09:31:48;;;;;;;18.53;11.67;;;10.40;99.90;;;;;;5117071;28;20472;-63
2023/10/27 09:34:19;;;;;;;18.13;11.00;;;10.50;99.90;;;;;;5116714;28;20935;-64
2023/10/27 09:36:48;;;;;;;18.63;11.40;;;10.50;99.90;;;;;;5117622;28;20864;-64
2023/10/27 09:39:18;;;;;;;13.77;11.07;;;10.50;99.90;;;;;;5116872;28;20445;-63
2023/10/27 09:41:56;;;;;;;16.77;11.70;;;10.60;99.90;;;;;;5116858;28;20882;-63
2023/10/27 09:44:30;;;;;;;19.67;12.17;;;10.60;99.90;;;;;;5117287;28;20421;-64
2023/10/27 09:47:00;;;;;;;17.33;12.57;;;10.60;99.90;;;;;;5116910;28;20428;-63
2023/10/27 09:49:33;;;;;;;20.97;14.20;;;10.60;99.90;;;;;;5116142;28;20449;-62
2023/10/27 09:52:01;;;;;;;18.60;12.83;;;10.70;99.90;;;;;;5116312;28;20462;-64
2023/10/27 09:54:31;;;;;;;18.53;13.30;;;10.70;99.90;;;;;;5116876;28;20917;-67
2023/10/27 09:57:00;;;;;;;21.03;13.50;;;10.80;99.90;;;;;;5116582;28;20467;-64
2023/10/27 09:59:28;;;;;;;17.57;13.47;;;10.70;99.90;;;;;;5116438;28;20445;-63
2023/10/27 10:01:56;;;;;;;17.03;12.00;;;10.70;99.90;;;;;;5116089;28;20515;-62
2023/10/27 10:04:58;;;;;;;19.60;14.50;;;10.80;99.90;;;;;;5116228;28;20437;-62
2023/10/27 10:07:32;;;;;;;19.40;14.30;;;10.80;99.90;;;;;;5116771;28;20441;-61
2023/10/27 10:10:17;;;;;;;23.60;16.60;;;10.90;99.90;;;;;;5117148;28;20477;-63
2023/10/27 10:13:00;;;;;;;19.00;15.20;;;11.00;99.90;;;;;;5119150;28;20489;-63
2023/10/27 10:15:28;;;;;;;20.63;15.43;;;11.10;99.90;;;;;;5121538;28;20524;-64
2023/10/27 10:17:55;;;;;;;21.00;16.30;;;11.30;99.90;;;;;;5121700;28;20449;-63
2023/10/27 10:20:56;;;;;;;21.17;15.90;;;11.50;99.90;;;;;;5120805;28;20445;-64
2023/10/27 10:23:25;;;;;;;22.13;16.77;;;11.60;99.90;;;;;;5122822;28;20438;-64
2023/10/27 10:25:54;;;;;;;21.67;16.03;;;11.60;99.90;;;;;;5126733;28;20486;-63
2023/10/27 10:28:33;;;;;;;19.40;15.30;;;11.70;99.90;;;;;;5125941;28;20459;-63
2023/10/27 10:31:21;;;;;;;21.00;16.10;;;11.80;99.90;;;;;;5116078;28;20890;-61
2023/10/27 10:33:48;;;;;;;22.30;15.37;;;11.80;99.90;;;;;;5114839;28;21020;-63
2023/10/27 10:36:26;;;;;;;19.40;15.20;;;11.70;99.90;;;;;;5115487;28;20946;-62
2023/10/27 10:39:03;;;;;;;22.43;16.07;;;11.70;99.90;;;;;;5115417;28;20448;-62
2023/10/27 10:42:03;;;;;;;22.33;15.23;;;11.70;99.90;;;;;;5115145;28;20464;-64
2023/10/27 10:44:31;;;;;;;23.17;17.30;;;11.70;99.90;;;;;;5052397;28;20432;-64
2023/10/27 10:47:00;;;;;;;24.33;17.37;;;11.70;99.90;;;;;;5101647;28;20467;-62
2023/10/27 10:49:28;;;;;;;25.07;18.00;;;11.60;99.90;;;;;;5114848;28;20445;-64
2023/10/27 10:51:56;;;;;;;24.23;18.13;;;11.60;99.90;;;;;;5115386;28;20461;-62
2023/10/27 10:54:27;;;;;;;23.40;17.30;;;11.60;99.90;;;;;;5115157;28;20476;-63
2023/10/27 10:57:08;;;;;;;22.90;18.03;;;11.60;99.90;;;;;;5115371;28;20432;-63
2023/10/27 10:59:35;;;;;;;23.43;16.00;;;11.60;99.90;;;;;;5115527;28;20819;-62
2023/10/27 11:02:04;;;;;;;24.23;17.00;;;11.50;99.90;;;;;;5115907;28;20485;-63
2023/10/27 11:04:32;;;;;;;25.90;18.70;;;11.50;99.90;;;;;;5115286;28;20869;-62
2023/10/27 11:07:00;;;;;;;31.87;24.00;;;11.50;99.90;;;;;;5115122;28;20445;-62
2023/10/27 11:09:27;;;;;;;28.90;21.43;;;11.50;99.90;;;;;;5114556;28;20430;-62
2023/10/27 11:11:55;;;;;;;33.23;21.50;;;11.50;99.90;;;;;;5114498;28;20818;-63
2023/10/27 11:14:23;;;;;;;30.60;20.70;;;11.50;99.90;;;;;;5114813;28;20484;-63
2023/10/27 11:16:57;;;;;;;26.33;19.97;;;11.50;99.90;;;;;;5116245;28;20441;-64
2023/10/27 11:19:24;;;;;;;32.20;20.83;;;11.40;99.90;;;;;;5114256;28;20441;-63
2023/10/27 11:21:54;;;;;;;31.63;21.00;;;11.40;99.90;;;;;;5114117;28;20461;-64
2023/10/27 11:24:22;;;;;;;29.90;21.10;;;11.40;99.90;;;;;;5114883;28;20440;-64
2023/10/27 11:26:49;;;;;;;32.70;22.27;;;11.40;99.90;;;;;;5114637;28;20807;-63
2023/10/27 11:29:16;;;;;;;29.30;19.50;;;11.30;99.90;;;;;;5115037;28;20456;-62
2023/10/27 11:31:45;;;;;;;37.03;21.70;;;11.30;99.90;;;;;;5114476;28;20457;-61
2023/10/27 11:34:13;;;;;;;32.63;21.20;;;11.30;99.90;;;;;;5114516;28;20481;-64
2023/10/27 11:36:42;;;;;;;36.03;22.40;;;11.30;99.90;;;;;;5114504;28;20957;-63
2023/10/27 11:39:14;;;;;;;32.90;21.57;;;11.30;99.90;;;;;;5114638;28;20907;-63
2023/10/27 11:41:41;;;;;;;31.63;20.93;;;11.20;99.90;;;;;;5114952;28;20600;-64
2023/10/27 11:44:07;;;;;;;35.07;22.53;;;11.10;99.90;;;;;;5115509;28;20445;-65
2023/10/27 11:46:34;;;;;;;37.13;24.10;;;11.10;99.90;;;;;;5115773;28;20442;-63
2023/10/27 11:49:02;;;;;;;36.87;21.83;;;11.10;99.90;;;;;;5116383;28;20467;-63
2023/10/27 11:51:30;;;;;;;37.13;24.07;;;11.10;99.90;;;;;;5116221;28;20466;-65
2023/10/27 11:53:58;;;;;;;37.73;23.10;;;11.10;99.90;;;;;;5115311;28;20497;-65
2023/10/27 11:56:25;;;;;;;38.97;24.13;;;11.10;99.90;;;;;;5116952;28;20468;-65
2023/10/27 11:58:52;;;;;;;38.30;24.23;;;11.10;99.90;;;;;;5115893;28;20433;-64
2023/10/27 12:01:19;;;;;;;32.37;22.63;;;11.10;99.90;;;;;;5115723;28;20476;-65
2023/10/27 12:03:46;;;;;;;36.20;24.07;;;11.10;99.90;;;;;;5115870;28;20456;-65
2023/10/27 12:06:14;;;;;;;35.40;23.23;;;11.10;99.90;;;;;;5114488;28;20437;-64
2023/10/27 12:08:41;;;;;;;34.57;21.83;;;11.10;99.90;;;;;;5115821;28;20441;-64
2023/10/27 12:11:08;;;;;;;34.90;23.27;;;11.10;99.90;;;;;;5114722;28;20472;-64
2023/10/27 12:13:34;;;;;;;35.93;22.30;;;11.00;99.90;;;;;;5114826;28;20893;-66
2023/10/27 12:16:01;;;;;;;32.53;22.10;;;11.00;99.90;;;;;;5115290;28;20445;-62
2023/10/27 12:18:28;;;;;;;37.13;22.47;;;11.00;99.90;;;;;;5115594;28;20469;-64
2023/10/27 12:20:55;;;;;;;34.83;23.53;;;11.00;99.90;;;;;;5115495;28;20445;-65
2023/10/27 12:23:23;;;;;;;36.33;23.30;;;11.00;99.90;;;;;;5115444;28;20433;-63
2023/10/27 12:25:50;;;;;;;32.97;20.70;;;11.10;99.90;;;;;;5116235;28;20793;-65
2023/10/27 12:28:18;;;;;;;31.97;21.90;;;11.10;99.90;;;;;;5115528;28;20448;-64
2023/10/27 12:30:44;;;;;;;29.63;19.80;;;11.00;99.90;;;;;;5114527;28;20468;-64
2023/10/27 12:33:11;;;;;;;32.43;21.83;;;11.00;99.90;;;;;;5116814;28;20477;-63
2023/10/27 12:35:38;;;;;;;37.03;22.93;;;11.00;99.90;;;;;;5120057;28;20452;-65
2023/10/27 12:38:05;;;;;;;33.03;21.67;;;11.00;99.90;;;;;;5119346;28;20930;-63
2023/10/27 12:40:35;;;;;;;28.73;20.67;;;11.00;99.90;;;;;;5121229;28;20441;-64